AAL2650 KDFW-MMUN
Flight info
| Callsign | AAL2650 |
|---|---|
| Flight time | 2h 6m |
| Altitude | 37000 |
| Route | DARTZ9 TNV DCT SBI A766 KEHLI UL209 BETAS DCT VOMAR VOMAR1A |
| Aircraft | B738/M-SDE2E3FGHIRWXY/LB1 |
Departure
| Time | 2026-05-04 17:21 |
|---|---|
| Airport | Dallas Fort Worth International Airport (KDFW) |
Arrival
| Time | 2026-05-04 19:28 |
|---|---|
| Airport | Cancún International Airport (MMUN) |
| Time | Latitude | Longitude | Altitude | Speed | Heading |
|---|---|---|---|---|---|
| 2026-05-04 16:56 | 32.90160 | -97.03831 | 597 ft | 0 kts | 0° |
| 2026-05-04 17:10 | 32.90157 | -97.03831 | 606 ft | 3 kts | 0° |
| 2026-05-04 17:10 | 32.90112 | -97.03847 | 597 ft | 1 kts | 90° |
| 2026-05-04 17:14 | 32.90112 | -97.03804 | 597 ft | 9 kts | 91° |
| 2026-05-04 17:15 | 32.90111 | -97.03715 | 597 ft | 12 kts | 92° |
| 2026-05-04 17:15 | 32.90111 | -97.03515 | 597 ft | 13 kts | 90° |
| 2026-05-04 17:16 | 32.90145 | -97.03321 | 597 ft | 12 kts | 25° |
| 2026-05-04 17:16 | 32.90392 | -97.03313 | 597 ft | 11 kts | 1° |
| 2026-05-04 17:17 | 32.90475 | -97.03312 | 597 ft | 13 kts | 359° |
| 2026-05-04 17:17 | 32.90877 | -97.03311 | 597 ft | 21 kts | 0° |
| 2026-05-04 17:18 | 32.90987 | -97.03302 | 597 ft | 15 kts | 20° |
| 2026-05-04 17:18 | 32.91179 | -97.03274 | 597 ft | 13 kts | 0° |
| 2026-05-04 17:19 | 32.91360 | -97.03273 | 597 ft | 13 kts | 0° |
| 2026-05-04 17:19 | 32.91485 | -97.03190 | 597 ft | 12 kts | 91° |
| 2026-05-04 17:20 | 32.91466 | -97.03005 | 597 ft | 11 kts | 147° |
| 2026-05-04 17:20 | 32.91414 | -97.02991 | 597 ft | 0 kts | 180° |
| 2026-05-04 17:21 | 32.90521 | -97.02996 | 597 ft | 127 kts | 180° |
| 2026-05-04 17:21 | 32.88396 | -97.02979 | 1678 ft | 155 kts | 179° |
| 2026-05-04 17:22 | 32.87316 | -97.02882 | 2386 ft | 158 kts | 178° |
| 2026-05-04 17:22 | 32.86189 | -97.02811 | 3022 ft | 166 kts | 181° |
| 2026-05-04 17:23 | 32.82054 | -97.02898 | 3846 ft | 222 kts | 184° |
| 2026-05-04 17:23 | 32.80449 | -97.02929 | 4320 ft | 236 kts | 184° |
| 2026-05-04 17:23 | 32.77051 | -97.02970 | 5704 ft | 249 kts | 185° |
| 2026-05-04 17:24 | 32.75309 | -97.02983 | 6446 ft | 252 kts | 184° |
| 2026-05-04 17:24 | 32.69930 | -97.02679 | 8274 ft | 278 kts | 163° |
| 2026-05-04 17:25 | 32.68108 | -97.01724 | 8724 ft | 292 kts | 160° |
| 2026-05-04 17:25 | 32.64319 | -96.99723 | 10053 ft | 301 kts | 160° |
| 2026-05-04 17:26 | 32.60263 | -96.97648 | 10608 ft | 338 kts | 161° |
| 2026-05-04 17:26 | 32.53299 | -96.94149 | 11729 ft | 375 kts | 160° |
| 2026-05-04 17:27 | 32.48506 | -96.91602 | 12916 ft | 385 kts | 160° |
| 2026-05-04 17:27 | 32.43541 | -96.88972 | 14059 ft | 396 kts | 160° |
| 2026-05-04 17:28 | 32.38462 | -96.86297 | 15257 ft | 402 kts | 160° |
| 2026-05-04 17:29 | 32.30667 | -96.82206 | 16873 ft | 418 kts | 160° |
| 2026-05-04 17:29 | 32.22450 | -96.78540 | 18549 ft | 425 kts | 168° |
| 2026-05-04 17:30 | 32.13868 | -96.75360 | 19928 ft | 437 kts | 168° |
| 2026-05-04 17:31 | 32.08028 | -96.73113 | 20875 ft | 445 kts | 167° |
| 2026-05-04 17:31 | 31.99084 | -96.69632 | 22210 ft | 456 kts | 167° |
| 2026-05-04 17:32 | 31.93006 | -96.67272 | 23061 ft | 463 kts | 167° |
| 2026-05-04 17:33 | 31.83686 | -96.63668 | 24043 ft | 476 kts | 168° |
| 2026-05-04 17:33 | 31.80573 | -96.62467 | 24380 ft | 478 kts | 168° |
| 2026-05-04 17:34 | 31.71010 | -96.58777 | 25338 ft | 488 kts | 168° |
| 2026-05-04 17:34 | 31.67775 | -96.57530 | 25644 ft | 491 kts | 169° |
| 2026-05-04 17:35 | 31.57950 | -96.53746 | 26502 ft | 500 kts | 169° |
| 2026-05-04 17:35 | 31.51300 | -96.51192 | 27063 ft | 505 kts | 169° |
| 2026-05-04 17:35 | 31.47946 | -96.49922 | 27339 ft | 508 kts | 170° |
| 2026-05-04 17:36 | 31.44567 | -96.48658 | 27617 ft | 510 kts | 170° |
| 2026-05-04 17:36 | 31.41177 | -96.47395 | 27888 ft | 513 kts | 170° |
| 2026-05-04 17:36 | 31.37765 | -96.46123 | 28159 ft | 516 kts | 170° |
| 2026-05-04 17:36 | 31.34342 | -96.44845 | 28429 ft | 517 kts | 170° |
| 2026-05-04 17:37 | 31.30913 | -96.43561 | 28770 ft | 518 kts | 170° |
| 2026-05-04 17:37 | 31.27471 | -96.42274 | 28998 ft | 521 kts | 170° |
| 2026-05-04 17:37 | 31.23999 | -96.40978 | 29129 ft | 526 kts | 170° |
| 2026-05-04 17:37 | 31.20499 | -96.39671 | 29351 ft | 529 kts | 170° |
| 2026-05-04 17:38 | 31.16994 | -96.38361 | 29691 ft | 529 kts | 171° |
| 2026-05-04 17:38 | 31.13487 | -96.37053 | 30043 ft | 529 kts | 171° |
| 2026-05-04 17:38 | 31.09977 | -96.35747 | 30291 ft | 530 kts | 171° |
| 2026-05-04 17:38 | 31.06455 | -96.34438 | 30615 ft | 528 kts | 171° |
| 2026-05-04 17:39 | 31.00661 | -96.32282 | 31267 ft | 524 kts | 171° |
| 2026-05-04 17:39 | 30.96060 | -96.30574 | 31672 ft | 524 kts | 171° |
| 2026-05-04 17:39 | 30.92570 | -96.29282 | 31954 ft | 524 kts | 171° |
| 2026-05-04 17:40 | 30.90264 | -96.28429 | 32147 ft | 524 kts | 171° |
| 2026-05-04 17:40 | 30.86784 | -96.27141 | 32463 ft | 524 kts | 171° |
| 2026-05-04 17:40 | 30.82181 | -96.25437 | 32868 ft | 523 kts | 171° |
| 2026-05-04 17:40 | 30.78711 | -96.24154 | 33114 ft | 523 kts | 171° |
| 2026-05-04 17:41 | 30.76408 | -96.23303 | 33326 ft | 522 kts | 171° |
| 2026-05-04 17:41 | 30.72945 | -96.22024 | 33611 ft | 522 kts | 171° |
| 2026-05-04 17:41 | 30.69481 | -96.20746 | 33868 ft | 523 kts | 171° |
| 2026-05-04 17:41 | 30.66011 | -96.19467 | 34103 ft | 523 kts | 171° |
| 2026-05-04 17:42 | 30.62542 | -96.18189 | 34359 ft | 522 kts | 171° |
| 2026-05-04 17:42 | 30.59086 | -96.16915 | 34606 ft | 521 kts | 171° |
| 2026-05-04 17:42 | 30.55623 | -96.15641 | 34860 ft | 520 kts | 171° |
| 2026-05-04 17:42 | 30.52171 | -96.14371 | 35086 ft | 520 kts | 171° |
| 2026-05-04 17:43 | 30.48716 | -96.13103 | 35313 ft | 520 kts | 171° |
| 2026-05-04 17:43 | 30.45311 | -96.11853 | 35502 ft | 519 kts | 171° |
| 2026-05-04 17:43 | 30.41872 | -96.10591 | 35741 ft | 518 kts | 171° |
| 2026-05-04 17:43 | 30.38431 | -96.09330 | 35935 ft | 517 kts | 171° |
| 2026-05-04 17:44 | 30.34997 | -96.08064 | 36089 ft | 519 kts | 169° |
| 2026-05-04 17:44 | 30.31696 | -96.06174 | 36152 ft | 540 kts | 148° |
| 2026-05-04 17:44 | 30.28928 | -96.03188 | 36357 ft | 547 kts | 130° |
| 2026-05-04 17:44 | 30.26872 | -95.99492 | 36585 ft | 547 kts | 112° |
| 2026-05-04 17:45 | 30.25561 | -95.95387 | 36798 ft | 542 kts | 105° |
| 2026-05-04 17:45 | 30.24418 | -95.91288 | 36897 ft | 543 kts | 104° |
| 2026-05-04 17:45 | 30.22150 | -95.82936 | 36902 ft | 544 kts | 105° |
| 2026-05-04 17:46 | 30.19807 | -95.74608 | 36947 ft | 543 kts | 106° |
| 2026-05-04 17:46 | 30.17399 | -95.66332 | 36958 ft | 543 kts | 106° |
| 2026-05-04 17:47 | 30.14973 | -95.58076 | 37054 ft | 542 kts | 106° |
| 2026-05-04 17:47 | 30.12560 | -95.49872 | 37056 ft | 542 kts | 106° |
| 2026-05-04 17:48 | 30.10134 | -95.41623 | 37057 ft | 541 kts | 106° |
| 2026-05-04 17:48 | 30.07719 | -95.33430 | 37062 ft | 542 kts | 106° |
| 2026-05-04 17:49 | 30.05283 | -95.25186 | 37068 ft | 542 kts | 106° |
| 2026-05-04 17:49 | 30.02833 | -95.16917 | 37063 ft | 543 kts | 106° |
| 2026-05-04 17:50 | 30.00380 | -95.08662 | 37056 ft | 543 kts | 106° |
| 2026-05-04 17:50 | 29.97938 | -95.00465 | 37043 ft | 543 kts | 106° |
| 2026-05-04 17:51 | 29.95470 | -94.92202 | 37072 ft | 543 kts | 106° |
| 2026-05-04 17:51 | 29.93020 | -94.84018 | 37058 ft | 543 kts | 106° |
| 2026-05-04 17:52 | 29.90547 | -94.75779 | 37060 ft | 543 kts | 106° |
| 2026-05-04 17:52 | 29.88060 | -94.67517 | 37062 ft | 543 kts | 106° |
| 2026-05-04 17:53 | 29.85592 | -94.59335 | 37061 ft | 543 kts | 106° |
| 2026-05-04 17:53 | 29.83101 | -94.51102 | 37068 ft | 543 kts | 106° |
| 2026-05-04 17:54 | 29.80624 | -94.42933 | 37062 ft | 543 kts | 106° |
| 2026-05-04 17:54 | 29.78124 | -94.34708 | 37060 ft | 543 kts | 106° |
| 2026-05-04 17:55 | 29.75621 | -94.26496 | 37035 ft | 543 kts | 107° |
| 2026-05-04 17:55 | 29.73119 | -94.18305 | 37081 ft | 542 kts | 107° |
| 2026-05-04 17:56 | 29.70597 | -94.10143 | 37070 ft | 542 kts | 110° |
| 2026-05-04 17:56 | 29.68902 | -94.06257 | 37069 ft | 543 kts | 122° |
| 2026-05-04 17:56 | 29.66682 | -94.02748 | 37076 ft | 542 kts | 132° |
| 2026-05-04 17:57 | 29.64095 | -93.99693 | 37065 ft | 538 kts | 143° |
| 2026-05-04 17:57 | 29.61147 | -93.97088 | 37095 ft | 534 kts | 148° |
| 2026-05-04 17:57 | 29.55117 | -93.92093 | 37078 ft | 534 kts | 148° |
| 2026-05-04 17:58 | 29.49096 | -93.87067 | 37082 ft | 535 kts | 148° |
| 2026-05-04 17:58 | 29.43145 | -93.82013 | 37077 ft | 534 kts | 147° |
| 2026-05-04 17:59 | 29.37162 | -93.76907 | 37084 ft | 535 kts | 147° |
| 2026-05-04 18:00 | 29.28184 | -93.69265 | 37086 ft | 535 kts | 147° |
| 2026-05-04 18:00 | 29.22232 | -93.64215 | 37087 ft | 536 kts | 147° |
| 2026-05-04 18:01 | 29.16230 | -93.59130 | 37081 ft | 535 kts | 147° |
| 2026-05-04 18:01 | 29.10241 | -93.54064 | 37078 ft | 535 kts | 147° |
| 2026-05-04 18:02 | 29.01240 | -93.46463 | 37083 ft | 535 kts | 147° |
| 2026-05-04 18:02 | 28.95284 | -93.41442 | 37083 ft | 535 kts | 147° |
| 2026-05-04 18:03 | 28.89288 | -93.36394 | 37064 ft | 534 kts | 147° |
| 2026-05-04 18:03 | 28.83308 | -93.31371 | 37078 ft | 533 kts | 147° |
| 2026-05-04 18:04 | 28.77317 | -93.26348 | 37079 ft | 533 kts | 147° |
| 2026-05-04 18:05 | 28.68387 | -93.18871 | 37087 ft | 532 kts | 147° |
| 2026-05-04 18:05 | 28.62411 | -93.13876 | 37048 ft | 532 kts | 147° |
| 2026-05-04 18:06 | 28.53464 | -93.06410 | 37078 ft | 531 kts | 147° |
| 2026-05-04 18:06 | 28.47510 | -93.01451 | 37095 ft | 531 kts | 147° |
| 2026-05-04 18:07 | 28.41580 | -92.96519 | 37086 ft | 530 kts | 147° |
| 2026-05-04 18:07 | 28.35618 | -92.91566 | 37089 ft | 530 kts | 147° |
| 2026-05-04 18:08 | 28.29652 | -92.86617 | 37086 ft | 529 kts | 147° |
| 2026-05-04 18:08 | 28.23700 | -92.81687 | 37081 ft | 529 kts | 147° |
| 2026-05-04 18:09 | 28.11832 | -92.71877 | 37090 ft | 529 kts | 147° |
| 2026-05-04 18:10 | 28.05875 | -92.66965 | 37106 ft | 529 kts | 147° |
| 2026-05-04 18:10 | 27.99916 | -92.62062 | 37084 ft | 528 kts | 147° |
| 2026-05-04 18:11 | 27.93964 | -92.57168 | 37090 ft | 528 kts | 147° |
| 2026-05-04 18:11 | 27.88055 | -92.52316 | 37090 ft | 528 kts | 147° |
| 2026-05-04 18:12 | 27.82094 | -92.47428 | 37087 ft | 528 kts | 147° |
| 2026-05-04 18:12 | 27.76132 | -92.42545 | 37091 ft | 528 kts | 147° |
| 2026-05-04 18:13 | 27.70169 | -92.37668 | 37093 ft | 529 kts | 147° |
| 2026-05-04 18:14 | 27.61262 | -92.30397 | 37085 ft | 529 kts | 147° |
| 2026-05-04 18:14 | 27.55284 | -92.25525 | 37095 ft | 529 kts | 147° |
| 2026-05-04 18:15 | 27.43347 | -92.15815 | 37082 ft | 529 kts | 147° |
| 2026-05-04 18:16 | 27.37411 | -92.10997 | 37088 ft | 529 kts | 147° |
| 2026-05-04 18:16 | 27.31428 | -92.06147 | 37093 ft | 529 kts | 147° |
| 2026-05-04 18:17 | 27.22469 | -91.98896 | 37092 ft | 528 kts | 147° |
| 2026-05-04 18:18 | 27.13512 | -91.91663 | 37076 ft | 528 kts | 148° |
| 2026-05-04 18:18 | 27.07579 | -91.86886 | 37093 ft | 528 kts | 147° |
| 2026-05-04 18:19 | 26.98623 | -91.79683 | 37093 ft | 527 kts | 147° |
| 2026-05-04 18:19 | 26.92682 | -91.74912 | 37093 ft | 527 kts | 148° |
| 2026-05-04 18:20 | 26.86702 | -91.70115 | 37092 ft | 527 kts | 148° |
| 2026-05-04 18:20 | 26.80737 | -91.65335 | 37090 ft | 527 kts | 148° |
| 2026-05-04 18:21 | 26.74765 | -91.60558 | 37088 ft | 527 kts | 148° |
| 2026-05-04 18:21 | 26.68835 | -91.55820 | 37088 ft | 526 kts | 148° |
| 2026-05-04 18:22 | 26.62859 | -91.51053 | 37097 ft | 527 kts | 148° |
| 2026-05-04 18:22 | 26.56879 | -91.46287 | 37084 ft | 527 kts | 148° |
| 2026-05-04 18:23 | 26.50950 | -91.41568 | 37085 ft | 526 kts | 148° |
| 2026-05-04 18:23 | 26.44973 | -91.36818 | 37084 ft | 526 kts | 148° |
| 2026-05-04 18:24 | 26.39012 | -91.32086 | 37085 ft | 526 kts | 148° |
| 2026-05-04 18:24 | 26.33038 | -91.27351 | 37084 ft | 526 kts | 148° |
| 2026-05-04 18:25 | 26.27073 | -91.22628 | 37085 ft | 526 kts | 148° |
| 2026-05-04 18:25 | 26.21144 | -91.17940 | 37084 ft | 525 kts | 148° |
| 2026-05-04 18:26 | 26.15180 | -91.13230 | 37096 ft | 525 kts | 148° |
| 2026-05-04 18:26 | 26.10220 | -91.09318 | 37082 ft | 525 kts | 148° |
| 2026-05-04 18:27 | 26.04261 | -91.04624 | 37078 ft | 524 kts | 148° |
| 2026-05-04 18:27 | 25.98305 | -90.99936 | 37078 ft | 524 kts | 148° |
| 2026-05-04 18:28 | 25.92358 | -90.95263 | 37061 ft | 523 kts | 148° |
| 2026-05-04 18:28 | 25.86413 | -90.90597 | 37068 ft | 522 kts | 148° |
| 2026-05-04 18:29 | 25.80518 | -90.85976 | 37072 ft | 522 kts | 148° |
| 2026-05-04 18:29 | 25.74567 | -90.81317 | 37068 ft | 521 kts | 148° |
| 2026-05-04 18:30 | 25.65709 | -90.74393 | 37085 ft | 521 kts | 148° |
| 2026-05-04 18:31 | 25.59780 | -90.69766 | 37070 ft | 520 kts | 148° |
| 2026-05-04 18:31 | 25.53864 | -90.65154 | 37063 ft | 519 kts | 148° |
| 2026-05-04 18:32 | 25.47953 | -90.60552 | 37067 ft | 518 kts | 148° |
| 2026-05-04 18:32 | 25.42052 | -90.55964 | 37068 ft | 518 kts | 148° |
| 2026-05-04 18:33 | 25.36187 | -90.51408 | 37065 ft | 518 kts | 148° |
| 2026-05-04 18:33 | 25.30286 | -90.46831 | 37053 ft | 517 kts | 148° |
| 2026-05-04 18:34 | 25.24390 | -90.42263 | 37056 ft | 516 kts | 148° |
| 2026-05-04 18:34 | 25.18544 | -90.37739 | 37072 ft | 516 kts | 148° |
| 2026-05-04 18:35 | 25.12655 | -90.33187 | 37055 ft | 515 kts | 148° |
| 2026-05-04 18:35 | 25.06772 | -90.28646 | 37052 ft | 515 kts | 148° |
| 2026-05-04 18:36 | 25.00902 | -90.24120 | 37034 ft | 514 kts | 148° |
| 2026-05-04 18:36 | 24.95082 | -90.19637 | 37050 ft | 513 kts | 148° |
| 2026-05-04 18:37 | 24.89235 | -90.15139 | 37051 ft | 512 kts | 148° |
| 2026-05-04 18:37 | 24.83386 | -90.10645 | 37054 ft | 512 kts | 148° |
| 2026-05-04 18:38 | 24.77552 | -90.06167 | 37054 ft | 511 kts | 148° |
| 2026-05-04 18:38 | 24.71720 | -90.01696 | 37051 ft | 511 kts | 148° |
| 2026-05-04 18:39 | 24.65887 | -89.97230 | 37064 ft | 511 kts | 148° |
| 2026-05-04 18:39 | 24.60053 | -89.92767 | 37048 ft | 511 kts | 148° |
| 2026-05-04 18:40 | 24.54205 | -89.88298 | 37047 ft | 511 kts | 148° |
| 2026-05-04 18:40 | 24.48000 | -89.84800 | 37063 ft | 499 kts | 168° |
| 2026-05-04 18:41 | 24.41273 | -89.83489 | 37054 ft | 485 kts | 184° |
| 2026-05-04 18:41 | 24.34508 | -89.83223 | 37041 ft | 486 kts | 185° |
| 2026-05-04 18:42 | 24.27737 | -89.82945 | 37041 ft | 487 kts | 184° |
| 2026-05-04 18:42 | 24.20951 | -89.82612 | 37041 ft | 488 kts | 184° |
| 2026-05-04 18:43 | 24.14189 | -89.82260 | 37046 ft | 489 kts | 184° |
| 2026-05-04 18:43 | 24.07363 | -89.81905 | 37040 ft | 490 kts | 184° |
| 2026-05-04 18:44 | 24.00550 | -89.81553 | 37036 ft | 490 kts | 184° |
| 2026-05-04 18:44 | 23.93741 | -89.81203 | 37032 ft | 489 kts | 184° |
| 2026-05-04 18:45 | 23.86930 | -89.80854 | 37031 ft | 489 kts | 184° |
| 2026-05-04 18:45 | 23.80171 | -89.80507 | 37033 ft | 489 kts | 184° |
| 2026-05-04 18:46 | 23.73380 | -89.80158 | 37022 ft | 488 kts | 184° |
| 2026-05-04 18:46 | 23.66587 | -89.79798 | 37032 ft | 487 kts | 184° |
| 2026-05-04 18:47 | 23.59822 | -89.79438 | 37033 ft | 486 kts | 184° |
| 2026-05-04 18:47 | 23.53066 | -89.79080 | 37033 ft | 486 kts | 184° |
| 2026-05-04 18:48 | 23.46360 | -89.78726 | 37025 ft | 485 kts | 184° |
| 2026-05-04 18:48 | 23.39626 | -89.78370 | 37019 ft | 484 kts | 183° |
| 2026-05-04 18:49 | 23.32892 | -89.78015 | 37019 ft | 484 kts | 183° |
| 2026-05-04 18:49 | 23.26166 | -89.77661 | 37026 ft | 483 kts | 183° |
| 2026-05-04 18:50 | 23.19470 | -89.77309 | 37025 ft | 483 kts | 183° |
| 2026-05-04 18:50 | 23.12748 | -89.76956 | 37025 ft | 483 kts | 183° |
| 2026-05-04 18:51 | 23.06020 | -89.76603 | 37020 ft | 483 kts | 183° |
| 2026-05-04 18:51 | 22.99284 | -89.76249 | 37024 ft | 483 kts | 183° |
| 2026-05-04 18:52 | 22.92598 | -89.75899 | 37024 ft | 483 kts | 183° |
| 2026-05-04 18:52 | 22.85881 | -89.75547 | 37025 ft | 483 kts | 183° |
| 2026-05-04 18:53 | 22.79163 | -89.75196 | 37022 ft | 483 kts | 183° |
| 2026-05-04 18:53 | 22.72517 | -89.74412 | 36993 ft | 494 kts | 164° |
| 2026-05-04 18:53 | 22.69444 | -89.72700 | 37025 ft | 503 kts | 146° |
| 2026-05-04 18:54 | 22.66881 | -89.70091 | 37026 ft | 507 kts | 130° |
| 2026-05-04 18:54 | 22.65028 | -89.66840 | 37005 ft | 509 kts | 111° |
| 2026-05-04 18:54 | 22.63873 | -89.63221 | 37059 ft | 508 kts | 107° |
| 2026-05-04 18:55 | 22.61819 | -89.55885 | 37024 ft | 509 kts | 105° |
| 2026-05-04 18:55 | 22.58718 | -89.44919 | 37013 ft | 510 kts | 107° |
| 2026-05-04 18:56 | 22.56563 | -89.37591 | 37014 ft | 510 kts | 107° |
| 2026-05-04 18:56 | 22.54404 | -89.30323 | 37015 ft | 511 kts | 107° |
| 2026-05-04 18:57 | 22.52227 | -89.22998 | 37022 ft | 511 kts | 107° |
| 2026-05-04 18:57 | 22.50046 | -89.15663 | 37015 ft | 511 kts | 107° |
| 2026-05-04 18:58 | 22.47878 | -89.08378 | 37017 ft | 512 kts | 107° |
| 2026-05-04 18:58 | 22.45690 | -89.01040 | 37016 ft | 512 kts | 107° |
| 2026-05-04 18:59 | 22.43500 | -88.93709 | 37007 ft | 511 kts | 107° |
| 2026-05-04 18:59 | 22.41350 | -88.86526 | 36987 ft | 487 kts | 107° |
| 2026-05-04 19:00 | 22.40321 | -88.83096 | 36992 ft | 474 kts | 107° |
| 2026-05-04 19:00 | 22.39330 | -88.79794 | 36986 ft | 461 kts | 107° |
| 2026-05-04 19:00 | 22.38357 | -88.76554 | 36990 ft | 448 kts | 107° |
| 2026-05-04 19:00 | 22.37398 | -88.73360 | 37014 ft | 447 kts | 107° |
| 2026-05-04 19:01 | 22.35454 | -88.66895 | 37026 ft | 457 kts | 107° |
| 2026-05-04 19:01 | 22.33465 | -88.60288 | 37024 ft | 467 kts | 107° |
| 2026-05-04 19:02 | 22.31437 | -88.53570 | 37014 ft | 471 kts | 107° |
| 2026-05-04 19:02 | 22.29412 | -88.46868 | 37015 ft | 471 kts | 108° |
| 2026-05-04 19:03 | 22.27394 | -88.40201 | 37004 ft | 464 kts | 108° |
| 2026-05-04 19:03 | 22.25385 | -88.33576 | 37014 ft | 463 kts | 108° |
| 2026-05-04 19:04 | 22.23375 | -88.26959 | 37004 ft | 463 kts | 108° |
| 2026-05-04 19:04 | 22.22374 | -88.23669 | 36766 ft | 456 kts | 108° |
| 2026-05-04 19:04 | 22.21393 | -88.20448 | 36267 ft | 450 kts | 107° |
| 2026-05-04 19:05 | 22.20421 | -88.17256 | 35319 ft | 458 kts | 105° |
| 2026-05-04 19:05 | 22.19414 | -88.13945 | 34195 ft | 469 kts | 104° |
| 2026-05-04 19:05 | 22.18383 | -88.10554 | 32839 ft | 482 kts | 104° |
| 2026-05-04 19:05 | 22.17323 | -88.07073 | 31405 ft | 494 kts | 104° |
| 2026-05-04 19:06 | 22.16234 | -88.03508 | 29982 ft | 505 kts | 105° |
| 2026-05-04 19:06 | 22.15122 | -87.99879 | 28596 ft | 509 kts | 105° |
| 2026-05-04 19:06 | 22.13940 | -87.96308 | 27799 ft | 501 kts | 114° |
| 2026-05-04 19:06 | 22.12153 | -87.93227 | 27521 ft | 482 kts | 130° |
| 2026-05-04 19:07 | 22.09844 | -87.90710 | 27151 ft | 465 kts | 138° |
| 2026-05-04 19:07 | 22.07453 | -87.88399 | 26394 ft | 460 kts | 140° |
| 2026-05-04 19:07 | 22.05055 | -87.86122 | 25583 ft | 457 kts | 140° |
| 2026-05-04 19:07 | 22.02687 | -87.83857 | 24883 ft | 452 kts | 140° |
| 2026-05-04 19:08 | 22.00365 | -87.81601 | 24252 ft | 445 kts | 140° |
| 2026-05-04 19:08 | 21.98092 | -87.79369 | 23638 ft | 439 kts | 140° |
| 2026-05-04 19:08 | 21.95856 | -87.77161 | 22909 ft | 433 kts | 140° |
| 2026-05-04 19:08 | 21.93650 | -87.74978 | 22199 ft | 426 kts | 140° |
| 2026-05-04 19:09 | 21.91482 | -87.72837 | 21520 ft | 420 kts | 140° |
| 2026-05-04 19:09 | 21.89342 | -87.70726 | 20850 ft | 414 kts | 140° |
| 2026-05-04 19:09 | 21.87251 | -87.68666 | 20186 ft | 409 kts | 140° |
| 2026-05-04 19:09 | 21.85168 | -87.66615 | 19541 ft | 403 kts | 140° |
| 2026-05-04 19:10 | 21.83112 | -87.64592 | 18924 ft | 398 kts | 140° |
| 2026-05-04 19:10 | 21.81086 | -87.62598 | 18317 ft | 392 kts | 140° |
| 2026-05-04 19:10 | 21.79079 | -87.60624 | 17612 ft | 387 kts | 140° |
| 2026-05-04 19:10 | 21.77098 | -87.58677 | 16905 ft | 382 kts | 140° |
| 2026-05-04 19:11 | 21.75149 | -87.56761 | 16275 ft | 377 kts | 140° |
| 2026-05-04 19:11 | 21.73233 | -87.54877 | 15789 ft | 367 kts | 140° |
| 2026-05-04 19:11 | 21.71392 | -87.53067 | 15620 ft | 349 kts | 140° |
| 2026-05-04 19:11 | 21.69639 | -87.51345 | 15413 ft | 335 kts | 140° |
| 2026-05-04 19:12 | 21.67944 | -87.49680 | 15116 ft | 325 kts | 140° |
| 2026-05-04 19:12 | 21.64695 | -87.46495 | 14362 ft | 314 kts | 140° |
| 2026-05-04 19:12 | 21.63047 | -87.44959 | 13899 ft | 312 kts | 143° |
| 2026-05-04 19:13 | 21.61359 | -87.43506 | 13424 ft | 309 kts | 144° |
| 2026-05-04 19:13 | 21.59676 | -87.42084 | 12947 ft | 307 kts | 144° |
| 2026-05-04 19:13 | 21.58001 | -87.40671 | 12483 ft | 304 kts | 144° |
| 2026-05-04 19:13 | 21.56344 | -87.39266 | 12024 ft | 302 kts | 144° |
| 2026-05-04 19:14 | 21.54725 | -87.37889 | 11572 ft | 299 kts | 143° |
| 2026-05-04 19:14 | 21.53098 | -87.36501 | 11121 ft | 297 kts | 143° |
| 2026-05-04 19:14 | 21.51484 | -87.35122 | 10679 ft | 295 kts | 143° |
| 2026-05-04 19:14 | 21.49882 | -87.33753 | 10260 ft | 293 kts | 143° |
| 2026-05-04 19:15 | 21.48296 | -87.32396 | 9830 ft | 291 kts | 143° |
| 2026-05-04 19:15 | 21.47251 | -87.31503 | 9536 ft | 289 kts | 143° |
| 2026-05-04 19:15 | 21.45171 | -87.29723 | 9171 ft | 275 kts | 143° |
| 2026-05-04 19:15 | 21.44192 | -87.28917 | 9112 ft | 261 kts | 149° |
| 2026-05-04 19:16 | 21.42579 | -87.28227 | 8964 ft | 240 kts | 170° |
| 2026-05-04 19:16 | 21.40996 | -87.27923 | 8805 ft | 224 kts | 174° |
| 2026-05-04 19:16 | 21.39462 | -87.27682 | 8404 ft | 222 kts | 174° |
| 2026-05-04 19:16 | 21.37955 | -87.27448 | 7998 ft | 221 kts | 174° |
| 2026-05-04 19:17 | 21.36438 | -87.27207 | 7630 ft | 219 kts | 173° |
| 2026-05-04 19:17 | 21.34939 | -87.26964 | 7243 ft | 217 kts | 173° |
| 2026-05-04 19:17 | 21.33450 | -87.26719 | 6869 ft | 215 kts | 173° |
| 2026-05-04 19:17 | 21.31975 | -87.26474 | 6483 ft | 214 kts | 173° |
| 2026-05-04 19:18 | 21.30510 | -87.26227 | 6100 ft | 212 kts | 173° |
| 2026-05-04 19:18 | 21.29059 | -87.25982 | 5697 ft | 210 kts | 172° |
| 2026-05-04 19:18 | 21.27619 | -87.25738 | 5238 ft | 209 kts | 173° |
| 2026-05-04 19:18 | 21.26183 | -87.25496 | 4785 ft | 208 kts | 172° |
| 2026-05-04 19:19 | 21.24759 | -87.25254 | 4329 ft | 206 kts | 172° |
| 2026-05-04 19:19 | 21.23347 | -87.25006 | 3862 ft | 205 kts | 168° |
| 2026-05-04 19:19 | 21.22131 | -87.24261 | 3383 ft | 205 kts | 128° |
| 2026-05-04 19:19 | 21.21653 | -87.22854 | 2956 ft | 202 kts | 95° |
| 2026-05-04 19:20 | 21.21565 | -87.21373 | 2679 ft | 197 kts | 94° |
| 2026-05-04 19:20 | 21.21475 | -87.19898 | 2490 ft | 200 kts | 94° |
| 2026-05-04 19:20 | 21.21382 | -87.18404 | 2311 ft | 201 kts | 94° |
| 2026-05-04 19:20 | 21.21290 | -87.16945 | 2130 ft | 198 kts | 93° |
| 2026-05-04 19:21 | 21.21046 | -87.15511 | 2011 ft | 197 kts | 116° |
| 2026-05-04 19:21 | 21.20291 | -87.14325 | 2008 ft | 187 kts | 123° |
| 2026-05-04 19:21 | 21.19578 | -87.13206 | 1978 ft | 177 kts | 122° |
| 2026-05-04 19:21 | 21.18903 | -87.12122 | 1985 ft | 174 kts | 122° |
| 2026-05-04 19:22 | 21.18228 | -87.11037 | 1993 ft | 175 kts | 122° |
| 2026-05-04 19:22 | 21.17553 | -87.09955 | 1985 ft | 175 kts | 122° |
| 2026-05-04 19:22 | 21.16877 | -87.08876 | 2001 ft | 173 kts | 122° |
| 2026-05-04 19:22 | 21.16201 | -87.07805 | 1993 ft | 174 kts | 123° |
| 2026-05-04 19:23 | 21.15520 | -87.06730 | 1969 ft | 176 kts | 123° |
| 2026-05-04 19:23 | 21.14835 | -87.05635 | 1915 ft | 177 kts | 122° |
| 2026-05-04 19:23 | 21.14150 | -87.04536 | 1840 ft | 177 kts | 123° |
| 2026-05-04 19:23 | 21.13472 | -87.03453 | 1784 ft | 173 kts | 122° |
| 2026-05-04 19:24 | 21.12787 | -87.02354 | 1677 ft | 180 kts | 121° |
| 2026-05-04 19:24 | 21.12088 | -87.01229 | 1611 ft | 180 kts | 121° |
| 2026-05-04 19:24 | 21.11402 | -87.00133 | 1589 ft | 173 kts | 121° |
| 2026-05-04 19:24 | 21.10747 | -86.99085 | 1589 ft | 167 kts | 121° |
| 2026-05-04 19:25 | 21.10103 | -86.98050 | 1600 ft | 169 kts | 121° |
| 2026-05-04 19:25 | 21.09453 | -86.97005 | 1590 ft | 164 kts | 121° |
| 2026-05-04 19:25 | 21.08819 | -86.95985 | 1470 ft | 166 kts | 121° |
| 2026-05-04 19:25 | 21.08182 | -86.94962 | 1292 ft | 161 kts | 122° |
| 2026-05-04 19:26 | 21.07583 | -86.94001 | 1055 ft | 150 kts | 123° |
| 2026-05-04 19:26 | 21.07017 | -86.93092 | 898 ft | 149 kts | 123° |
| 2026-05-04 19:26 | 21.06444 | -86.92170 | 706 ft | 147 kts | 123° |
| 2026-05-04 19:26 | 21.05888 | -86.91276 | 524 ft | 141 kts | 123° |
| 2026-05-04 19:27 | 21.05343 | -86.90402 | 351 ft | 142 kts | 124° |
| 2026-05-04 19:27 | 21.04798 | -86.89524 | 175 ft | 141 kts | 124° |
| 2026-05-04 19:27 | 21.04268 | -86.88666 | 31 ft | 132 kts | 124° |
| 2026-05-04 19:27 | 21.03832 | -86.87975 | 20 ft | 83 kts | 124° |
| 2026-05-04 19:28 | 21.03644 | -86.87660 | 23 ft | 29 kts | 113° |
| 2026-05-04 19:28 | 21.03606 | -86.87492 | 22 ft | 19 kts | 95° |
| 2026-05-04 19:28 | 21.03589 | -86.87355 | 20 ft | 18 kts | 98° |
| 2026-05-04 19:28 | 21.03552 | -86.87227 | 20 ft | 18 kts | 117° |
| 2026-05-04 19:29 | 21.03540 | -86.87110 | 20 ft | 17 kts | 56° |
| 2026-05-04 19:29 | 21.03604 | -86.87051 | 18 ft | 12 kts | 33° |
| 2026-05-04 19:29 | 21.03630 | -86.87033 | 18 ft | 0 kts | 33° |